Time;durP1;ratioP1;P1;durP2;ratioP2;P2;SDS_P1;SDS_P2;PMS_P1;PMS_P2;Temp;Humidity;BMP_temperature;BMP_pressure;BME280_temperature;BME280_humidity;BME280_pressure;Samples;Min_cycle;Max_cycle;Signal;HPM_P1;HPM_P2
2024/01/29 06:27:08;;;;;;;64.10;29.10;;;;;;;-6.98;100.00;103402.49;105272;1280;601293;-77
2024/01/29 06:29:38;;;;;;;35.30;15.50;;;;;;;-6.74;100.00;103401.65;106975;1258;60852;-76
2024/01/29 06:32:07;;;;;;;57.60;24.30;;;;;;;-6.65;100.00;103403.73;106691;1257;59257;-76
2024/01/29 06:34:37;;;;;;;63.90;26.00;;;;;;;-6.54;100.00;103400.45;106327;1257;71054;-77
2024/01/29 06:37:06;;;;;;;67.80;28.40;;;;;;;-6.43;100.00;103403.61;107118;1249;70637;-78
2024/01/29 06:39:35;;;;;;;76.30;34.50;;;;;;;-6.28;100.00;103404.20;106748;1257;343396;-78
2024/01/29 06:42:08;;;;;;;81.10;36.20;;;;;;;-6.14;100.00;103409.17;107164;1247;71990;-76
2024/01/29 06:44:37;;;;;;;83.20;39.50;;;;;;;-6.05;100.00;103412.59;106949;1251;61578;-76
2024/01/29 06:47:06;;;;;;;77.10;31.60;;;;;;;-5.95;100.00;103415.03;107042;1251;58729;-78
2024/01/29 06:49:35;;;;;;;82.50;34.60;;;;;;;-5.93;100.00;103421.70;107190;1251;70991;-77
2024/01/29 06:52:06;;;;;;;82.60;33.40;;;;;;;-5.88;100.00;103426.83;107208;1258;72461;-76
2024/01/29 06:54:41;;;;;;;86.60;34.30;;;;;;;-5.79;100.00;103433.41;107141;1246;70788;-77
2024/01/29 06:57:10;;;;;;;86.50;35.00;;;;;;;-5.66;100.00;103437.86;107049;1248;71432;-77
2024/01/29 06:59:39;;;;;;;88.40;32.70;;;;;;;-5.66;100.00;103436.32;106844;1257;61332;-76
2024/01/29 07:02:09;;;;;;;91.10;38.10;;;;;;;-5.60;100.00;103438.07;106857;1248;60413;-76
2024/01/29 07:04:38;;;;;;;91.30;35.40;;;;;;;-5.59;100.00;103437.06;106784;1251;71396;-76
2024/01/29 07:07:07;;;;;;;102.70;41.90;;;;;;;-5.58;100.00;103437.80;106948;1247;69320;-78
2024/01/29 07:09:37;;;;;;;93.50;42.40;;;;;;;-5.43;100.00;103438.52;106809;1248;70660;-78
2024/01/29 07:12:07;;;;;;;103.70;47.70;;;;;;;-5.27;100.00;103439.11;106951;1258;72853;-76
2024/01/29 07:14:36;;;;;;;88.10;40.10;;;;;;;-5.13;100.00;103438.96;106958;1248;60060;-78
2024/01/29 07:17:09;;;;;;;94.40;40.00;;;;;;;-4.94;100.00;103449.81;107078;1245;61213;-76
2024/01/29 07:19:39;;;;;;;97.60;38.50;;;;;;;-4.76;100.00;103455.87;106970;1253;72509;-75
2024/01/29 07:22:14;;;;;;;100.10;43.00;;;;;;;-4.54;100.00;103453.05;107166;1247;72467;-75
2024/01/29 07:24:44;;;;;;;100.60;41.90;;;;;;;-4.50;100.00;103446.73;107060;1248;70651;-77
2024/01/29 07:27:15;;;;;;;107.70;45.70;;;;;;;-4.41;100.00;103449.44;107152;1259;73503;-77
2024/01/29 07:29:44;;;;;;;137.30;52.10;;;;;;;-4.32;100.00;103455.52;107037;1248;62315;-79
2024/01/29 07:32:14;;;;;;;140.10;56.20;;;;;;;-4.13;100.00;103462.60;107204;1247;62118;-77
2024/01/29 07:34:43;;;;;;;124.10;52.70;;;;;;;-3.99;100.00;103463.03;107467;1249;70437;-78
2024/01/29 07:37:13;;;;;;;127.60;51.70;;;;;;;-3.98;100.00;103462.73;107637;1247;71364;-76
2024/01/29 07:39:42;;;;;;;109.60;52.10;;;;;;;-3.86;100.00;103456.13;106982;1249;69050;-77
2024/01/29 07:42:11;;;;;;;137.00;60.70;;;;;;;-3.78;100.00;103456.35;106978;1248;71786;-77
2024/01/29 07:44:40;;;;;;;135.30;45.50;;;;;;;-3.73;100.00;103452.62;106961;1248;61094;-76
2024/01/29 07:47:10;;;;;;;112.70;42.80;;;;;;;-3.52;100.00;103448.66;106843;1249;61539;-76
2024/01/29 07:49:39;;;;;;;112.20;36.30;;;;;;;-3.53;100.00;103447.10;106968;1248;72186;-76
2024/01/29 07:52:10;;;;;;;107.70;39.50;;;;;;;-3.47;100.00;103445.89;106843;1247;71026;-77
2024/01/29 07:54:39;;;;;;;109.30;34.70;;;;;;;-3.41;100.00;103445.56;106806;1249;68884;-76
2024/01/29 07:57:09;;;;;;;109.30;40.90;;;;;;;-3.43;100.00;103450.61;106970;1256;73803;-76
2024/01/29 07:59:39;;;;;;;54.40;19.20;;;;;;;-3.39;100.00;103454.48;106839;1249;61590;-76
2024/01/29 08:02:09;;;;;;;97.50;29.10;;;;;;;-3.33;100.00;103461.28;106842;1249;60796;-77
2024/01/29 08:04:39;;;;;;;87.60;26.40;;;;;;;-3.36;100.00;103457.45;106832;1259;73265;-76
2024/01/29 08:07:08;;;;;;;88.00;29.30;;;;;;;-3.26;100.00;103452.48;106940;1247;71026;-76
2024/01/29 08:09:37;;;;;;;98.20;36.30;;;;;;;-3.10;100.00;103450.02;106905;1248;70327;-76
2024/01/29 08:12:07;;;;;;;103.70;36.90;;;;;;;-2.96;100.00;103447.67;106921;1248;71598;-81
2024/01/29 08:14:37;;;;;;;102.90;33.80;;;;;;;-2.88;100.00;103443.61;106709;1259;61918;-76
2024/01/29 08:17:08;;;;;;;86.20;31.00;;;;;;;-2.68;100.00;103443.65;106913;1255;58710;-77
2024/01/29 08:19:37;;;;;;;91.10;29.60;;;;;;;-2.59;100.00;103445.08;106761;1249;71664;-77
2024/01/29 08:22:07;;;;;;;90.10;32.60;;;;;;;-2.51;100.00;103446.65;106880;1254;72142;-75
2024/01/29 08:24:39;;;;;;;93.40;35.80;;;;;;;-2.55;100.00;103448.24;106924;1248;68985;-77
2024/01/29 08:27:08;;;;;;;97.80;36.10;;;;;;;-2.45;100.00;103451.41;106843;1247;71274;-80
2024/01/29 08:29:37;;;;;;;98.80;37.30;;;;;;;-2.21;100.00;103457.64;106896;1254;59641;-77
2024/01/29 08:32:07;;;;;;;106.90;33.60;;;;;;;-2.06;100.00;103459.86;106946;1248;62149;-77
2024/01/29 08:34:37;;;;;;;41.00;15.80;;;;;;;-2.03;100.00;103464.91;106912;1248;73324;-76
2024/01/29 08:37:06;;;;;;;29.00;13.00;;;;;;;-2.07;100.00;103467.55;106907;1248;72141;-78
2024/01/29 08:39:36;;;;;;;46.20;17.90;;;;;;;-2.12;100.00;103467.26;106718;1247;71290;-78
2024/01/29 08:42:06;;;;;;;45.60;18.90;;;;;;;-2.18;100.00;103467.10;106783;1249;71782;-78
2024/01/29 08:44:37;;;;;;;71.10;27.10;;;;;;;-2.21;100.00;103471.31;106727;1247;61439;-77
2024/01/29 08:47:07;;;;;;;47.60;19.40;;;;;;;-2.08;100.00;103475.20;106792;1248;59056;-76
2024/01/29 08:49:36;;;;;;;36.50;17.20;;;;;;;-1.99;100.00;103484.30;106694;1259;71131;-77
2024/01/29 08:52:06;;;;;;;46.80;18.20;;;;;;;-2.07;100.00;103480.52;106856;1248;72175;-78
2024/01/29 08:54:35;;;;;;;59.30;25.50;;;;;;;-1.95;100.00;103477.74;106700;1251;69985;-77
2024/01/29 08:57:05;;;;;;;23.70;13.10;;;;;;;-1.90;100.00;103476.98;106882;1259;73786;-78
2024/01/29 08:59:35;;;;;;;60.90;24.50;;;;;;;-1.74;100.00;103475.48;106903;1250;62451;-78
2024/01/29 09:02:05;;;;;;;66.30;28.70;;;;;;;-1.64;100.00;103478.09;106795;1259;61996;-77
2024/01/29 09:04:36;;;;;;;52.60;22.70;;;;;;;-1.49;100.00;103476.22;106924;1248;71542;-77
2024/01/29 09:07:06;;;;;;;50.70;19.20;;;;;;;-1.33;100.00;103470.41;106901;1247;71637;-76
2024/01/29 09:09:36;;;;;;;24.30;12.30;;;;;;;-1.32;100.00;103470.77;106777;1247;71315;-76
2024/01/29 09:12:06;;;;;;;22.90;11.80;;;;;;;-1.46;100.00;103472.35;106828;1259;73271;-75
2024/01/29 09:14:35;;;;;;;32.50;17.60;;;;;;;-1.64;100.00;103467.52;106742;1259;63062;-77
2024/01/29 09:17:05;;;;;;;26.20;12.70;;;;;;;-1.62;100.00;103469.60;106826;1248;60925;-78
